createdAt,value
2018-11-02T00:00:11.114Z,1008.97
2018-11-02T00:01:11.118Z,1008.96
2018-11-02T00:02:11.001Z,1008.94
2018-11-02T00:03:11.139Z,1008.95
2018-11-02T00:04:10.950Z,1008.96
2018-11-02T00:05:10.921Z,1009.02
2018-11-02T00:06:10.952Z,1009.03
2018-11-02T00:07:10.961Z,1009.04
2018-11-02T00:08:10.854Z,1009.01
2018-11-02T00:09:10.968Z,1009.04
2018-11-02T00:10:10.980Z,1009.05
2018-11-02T00:11:10.774Z,1009.06
2018-11-02T00:12:10.920Z,1009.10
2018-11-02T00:13:10.717Z,1009.09
2018-11-02T00:14:10.801Z,1009.10
2018-11-02T00:15:10.671Z,1009.11
2018-11-02T00:16:10.637Z,1009.16
2018-11-02T00:17:10.725Z,1009.17
2018-11-02T00:18:10.589Z,1009.16
2018-11-02T00:19:10.745Z,1009.13
2018-11-02T00:20:10.547Z,1009.11
2018-11-02T00:21:10.511Z,1009.12
2018-11-02T00:22:10.492Z,1009.13
2018-11-02T00:23:10.565Z,1009.19
2018-11-02T00:24:10.441Z,1009.17
2018-11-02T00:25:10.588Z,1009.12
2018-11-02T00:26:10.585Z,1009.18
2018-11-02T00:27:10.365Z,1009.17
2018-11-02T00:28:10.512Z,1009.20
2018-11-02T00:29:10.317Z,1009.16
2018-11-02T00:30:10.418Z,1009.20
2018-11-02T00:31:10.268Z,1009.23
2018-11-02T00:32:10.231Z,1009.22
2018-11-02T00:33:10.338Z,1009.24
2018-11-02T00:34:10.187Z,1009.27
2018-11-02T00:35:10.346Z,1009.26
2018-11-02T00:36:10.128Z,1009.22
2018-11-02T00:37:10.107Z,1009.23
2018-11-02T00:38:10.081Z,1009.20
2018-11-02T00:39:10.277Z,1009.20
2018-11-02T00:40:10.032Z,1009.20
2018-11-02T00:41:10.185Z,1009.20
2018-11-02T00:42:09.982Z,1009.31
2018-11-02T00:43:10.092Z,1009.24
2018-11-02T00:44:10.081Z,1009.31
2018-11-02T00:45:10.107Z,1009.36
2018-11-02T00:46:09.881Z,1009.35
2018-11-02T00:47:10.021Z,1009.35
2018-11-02T00:48:09.828Z,1009.42
2018-11-02T00:49:09.931Z,1009.38
2018-11-02T00:50:09.771Z,1009.41
2018-11-02T00:51:09.840Z,1009.41
2018-11-02T00:52:09.718Z,1009.41
2018-11-02T00:53:09.705Z,1009.38
2018-11-02T00:54:09.672Z,1009.47
2018-11-02T00:55:10.106Z,1009.46
2018-11-02T00:56:09.622Z,1009.44
2018-11-02T00:57:09.681Z,1009.46
2018-11-02T00:58:09.580Z,1009.46
2018-11-02T00:59:09.588Z,1009.45
2018-11-02T01:00:09.567Z,1009.54
2018-11-02T01:01:09.603Z,1009.53
2018-11-02T01:02:09.472Z,1009.64
2018-11-02T01:03:09.521Z,1009.59
2018-11-02T01:04:09.417Z,1009.61
2018-11-02T01:05:09.426Z,1009.68
2018-11-02T01:06:09.380Z,1009.72
2018-11-02T01:07:09.439Z,1009.75
2018-11-02T01:08:09.316Z,1009.76
2018-11-02T01:09:09.298Z,1009.79
2018-11-02T01:10:09.278Z,1009.87
2018-11-02T01:11:09.389Z,1009.82
2018-11-02T01:12:09.221Z,1009.82
2018-11-02T01:13:09.281Z,1009.82
2018-11-02T01:14:09.160Z,1009.80
2018-11-02T01:15:09.190Z,1009.83
2018-11-02T01:16:09.106Z,1009.80
2018-11-02T01:17:09.209Z,1009.81
2018-11-02T01:18:09.063Z,1009.84
2018-11-02T01:19:09.117Z,1009.87
2018-11-02T01:20:09.118Z,1009.85
2018-11-02T01:21:08.996Z,1009.86
2018-11-02T01:22:09.030Z,1009.81
2018-11-02T01:23:08.935Z,1009.84
2018-11-02T01:24:09.049Z,1009.82
2018-11-02T01:25:08.948Z,1009.84
2018-11-02T01:26:08.859Z,1009.91
2018-11-02T01:27:08.968Z,1009.92
2018-11-02T01:28:08.817Z,1009.96
2018-11-02T01:29:08.879Z,1009.90
2018-11-02T01:30:08.760Z,1009.93
2018-11-02T01:31:08.791Z,1009.95
2018-11-02T01:32:08.700Z,1010.01
2018-11-02T01:33:08.813Z,1010.01
2018-11-02T01:34:08.648Z,1010.00
2018-11-02T01:35:08.725Z,1010.02
2018-11-02T01:36:08.605Z,1010.05
2018-11-02T01:37:08.728Z,1010.00
2018-11-02T01:38:08.551Z,1010.08
2018-11-02T01:39:08.636Z,1010.07
2018-11-02T01:40:08.501Z,1010.08
2018-11-02T01:41:08.473Z,1010.11
2018-11-02T01:42:08.449Z,1010.10
2018-11-02T01:43:08.576Z,1010.10
2018-11-02T01:44:08.390Z,1010.13
2018-11-02T01:45:08.482Z,1010.17
2018-11-02T01:46:08.351Z,1010.16
2018-11-02T01:47:08.323Z,1010.18
2018-11-02T01:48:08.407Z,1010.17
2018-11-02T01:49:08.267Z,1010.18
2018-11-02T01:50:08.311Z,1010.22
2018-11-02T01:51:08.238Z,1010.23
2018-11-02T01:52:08.186Z,1010.26
2018-11-02T01:53:08.167Z,1010.23
2018-11-02T01:54:08.278Z,1010.27
2018-11-02T01:55:08.121Z,1010.24
2018-11-02T01:56:08.250Z,1010.26
2018-11-02T01:57:08.161Z,1010.28
2018-11-02T01:58:08.047Z,1010.28
2018-11-02T01:59:08.168Z,1010.29
2018-11-02T02:00:08.015Z,1010.31
2018-11-02T02:01:08.077Z,1010.43
2018-11-02T02:02:07.931Z,1010.48
2018-11-02T02:03:07.906Z,1010.40
2018-11-02T02:04:07.997Z,1010.45
2018-11-02T02:05:07.857Z,1010.53
2018-11-02T02:06:07.917Z,1010.52
2018-11-02T02:07:07.811Z,1010.50
2018-11-02T02:08:07.790Z,1010.49
2018-11-02T02:09:07.938Z,1010.53
2018-11-02T02:10:07.805Z,1010.52
2018-11-02T02:11:07.840Z,1010.52
2018-11-02T02:12:07.686Z,1010.51
2018-11-02T02:13:07.697Z,1010.55
2018-11-02T02:14:07.631Z,1010.58
2018-11-02T02:15:07.771Z,1010.52
2018-11-02T02:16:07.584Z,1010.61
2018-11-02T02:17:07.681Z,1010.62
2018-11-02T02:18:07.527Z,1010.57
2018-11-02T02:19:07.499Z,1010.69
2018-11-02T02:20:07.601Z,1010.55
2018-11-02T02:21:14.809Z,1010.52
2018-11-02T02:23:00.481Z,1010.58
2018-11-02T02:24:00.469Z,1010.57
2018-11-02T02:25:53.342Z,1010.66
2018-11-02T02:26:53.243Z,1010.62
2018-11-02T02:27:53.331Z,1010.64
2018-11-02T02:28:53.181Z,1010.71
2018-11-02T02:29:53.161Z,1010.69
2018-11-02T02:30:53.257Z,1010.77
2018-11-02T02:31:53.109Z,1010.75
2018-11-02T02:32:53.160Z,1010.77
2018-11-02T02:33:53.067Z,1010.72
2018-11-02T02:34:53.030Z,1010.87
2018-11-02T02:35:53.009Z,1010.80
2018-11-02T02:36:53.089Z,1010.91
2018-11-02T02:37:52.958Z,1010.87
2018-11-02T02:38:53.000Z,1010.94
2018-11-02T02:39:52.917Z,1010.99
2018-11-02T02:40:53.017Z,1010.95
2018-11-02T02:41:52.851Z,1011.02
2018-11-02T02:42:52.918Z,1011.07
2018-11-02T02:43:52.807Z,1011.00
2018-11-02T02:44:52.831Z,1011.11
2018-11-02T02:45:52.752Z,1011.12
2018-11-02T02:46:52.863Z,1011.15
2018-11-02T02:47:52.696Z,1011.13
2018-11-02T02:48:52.766Z,1011.11
2018-11-02T02:49:52.644Z,1011.12
2018-11-02T02:50:52.626Z,1011.12
2018-11-02T02:51:52.588Z,1011.16
2018-11-02T02:52:52.643Z,1011.17
2018-11-02T02:53:52.537Z,1011.19
2018-11-02T02:54:52.550Z,1011.19
2018-11-02T02:55:52.491Z,1011.23
2018-11-02T02:56:52.611Z,1011.28
2018-11-02T02:57:52.444Z,1011.24
2018-11-02T02:58:52.517Z,1011.23
2018-11-02T02:59:52.387Z,1011.28
2018-11-02T03:00:52.437Z,1011.23
2018-11-02T03:01:52.349Z,1011.24
2018-11-02T03:02:52.455Z,1011.27
2018-11-02T03:03:52.283Z,1011.26
2018-11-02T03:04:52.308Z,1011.30
2018-11-02T03:05:52.228Z,1011.30
2018-11-02T03:06:52.209Z,1011.31
2018-11-02T03:07:52.190Z,1011.36
2018-11-02T03:08:52.278Z,1011.40
2018-11-02T03:09:52.127Z,1011.40
2018-11-02T03:10:52.298Z,1011.41
2018-11-02T03:11:52.089Z,1011.46
2018-11-02T03:12:52.218Z,1011.44
2018-11-02T03:13:52.020Z,1011.47
2018-11-02T03:14:52.129Z,1011.49
2018-11-02T03:15:51.971Z,1011.53
2018-11-02T03:16:52.028Z,1011.53
2018-11-02T03:17:52.046Z,1011.59
2018-11-02T03:18:51.988Z,1011.60
2018-11-02T03:19:51.949Z,1011.64
2018-11-02T03:20:51.846Z,1011.62
2018-11-02T03:21:51.980Z,1011.64
2018-11-02T03:22:51.788Z,1011.66
2018-11-02T03:23:51.766Z,1011.66
2018-11-02T03:24:51.888Z,1011.70
2018-11-02T03:25:51.719Z,1011.69
2018-11-02T03:26:51.807Z,1011.70
2018-11-02T03:27:51.658Z,1011.72
2018-11-02T03:28:51.819Z,1011.78
2018-11-02T03:29:51.614Z,1011.76
2018-11-02T03:30:51.732Z,1011.85
2018-11-02T03:31:51.557Z,1011.85
2018-11-02T03:32:51.656Z,1011.91
2018-11-02T03:33:51.508Z,1011.86
2018-11-02T03:34:51.482Z,1011.87
2018-11-02T03:35:51.564Z,1011.87
2018-11-02T03:36:51.434Z,1011.94
2018-11-02T03:37:51.576Z,1011.87
2018-11-02T03:38:51.477Z,1011.95
2018-11-02T03:39:51.349Z,1011.93
2018-11-02T03:40:51.489Z,1011.99
2018-11-02T03:41:51.316Z,1012.06
2018-11-02T03:42:51.401Z,1012.01
2018-11-02T03:43:51.252Z,1012.07
2018-11-02T03:44:51.230Z,1012.05
2018-11-02T03:45:51.227Z,1012.12
2018-11-02T03:46:51.177Z,1012.13
2018-11-02T03:47:51.339Z,1012.14
2018-11-02T03:48:51.114Z,1012.18
2018-11-02T03:49:51.096Z,1012.19
2018-11-02T03:50:51.058Z,1012.24
2018-11-02T03:51:51.157Z,1012.20
2018-11-02T03:52:51.008Z,1012.21
2018-11-02T03:53:51.168Z,1012.24
2018-11-02T03:54:51.078Z,1012.29
2018-11-02T03:55:50.929Z,1012.30
2018-11-02T03:56:51.163Z,1012.28
2018-11-02T03:57:50.878Z,1012.31
2018-11-02T03:58:50.997Z,1012.42
2018-11-02T03:59:50.828Z,1012.38
2018-11-02T04:00:50.838Z,1012.34
2018-11-02T04:01:50.918Z,1012.36
2018-11-02T04:02:50.756Z,1012.39
2018-11-02T04:03:50.932Z,1012.41
2018-11-02T04:04:50.698Z,1012.53
2018-11-02T04:05:50.670Z,1012.48
2018-11-02T04:06:50.639Z,1012.55
2018-11-02T04:07:51.785Z,1012.49
2018-11-02T04:08:50.597Z,1012.63
2018-11-02T04:09:50.767Z,1012.61
2018-11-02T04:10:50.539Z,1012.58
2018-11-02T04:11:50.683Z,1012.59
2018-11-02T04:12:50.488Z,1012.59
2018-11-02T04:13:50.593Z,1012.61
2018-11-02T04:14:50.437Z,1012.67
2018-11-02T04:15:50.612Z,1012.66
2018-11-02T04:16:50.377Z,1012.69
2018-11-02T04:17:50.447Z,1012.68
2018-11-02T04:18:50.334Z,1012.68
2018-11-02T04:19:50.328Z,1012.78
2018-11-02T04:20:50.281Z,1012.74
2018-11-02T04:21:50.248Z,1012.75
2018-11-02T04:22:50.237Z,1012.75
2018-11-02T04:23:50.261Z,1012.79
2018-11-02T04:24:50.168Z,1012.83
2018-11-02T04:25:50.269Z,1012.82
2018-11-02T04:26:50.124Z,1012.89
2018-11-02T04:27:50.181Z,1012.91
2018-11-02T04:28:50.070Z,1012.97
2018-11-02T04:29:50.092Z,1012.98
2018-11-02T04:30:50.096Z,1012.96
2018-11-02T04:31:50.110Z,1013.06
2018-11-02T04:32:49.960Z,1013.01
2018-11-02T04:33:50.021Z,1013.04
2018-11-02T04:34:49.925Z,1013.06
2018-11-02T04:35:49.929Z,1013.07
2018-11-02T04:36:49.860Z,1013.08
2018-11-02T04:37:49.832Z,1013.11
2018-11-02T04:38:49.857Z,1013.10
2018-11-02T04:39:49.779Z,1013.13
2018-11-02T04:40:49.860Z,1013.15
2018-11-02T04:41:49.730Z,1013.18
2018-11-02T04:42:49.779Z,1013.14
2018-11-02T04:43:49.677Z,1013.16
2018-11-02T04:44:49.788Z,1013.22
2018-11-02T04:45:49.622Z,1013.20
2018-11-02T04:46:49.704Z,1013.26
2018-11-02T04:47:49.577Z,1013.27
2018-11-02T04:48:49.542Z,1013.29
2018-11-02T04:49:49.529Z,1013.31
2018-11-02T04:50:49.687Z,1013.30
2018-11-02T04:51:49.458Z,1013.35
2018-11-02T04:52:49.538Z,1013.36
2018-11-02T04:53:49.509Z,1013.44
2018-11-02T04:54:49.392Z,1013.42
2018-11-02T04:55:49.458Z,1013.49
2018-11-02T04:56:49.330Z,1013.51
2018-11-02T04:57:49.369Z,1013.53
2018-11-02T04:58:49.288Z,1013.56
2018-11-02T04:59:49.378Z,1013.57
2018-11-02T05:00:49.228Z,1013.61
2018-11-02T05:01:49.296Z,1013.62
2018-11-02T05:02:49.182Z,1013.62
2018-11-02T05:03:49.326Z,1013.66
2018-11-02T05:04:49.216Z,1013.77
2018-11-02T05:05:49.108Z,1013.79
2018-11-02T05:06:49.235Z,1013.76
2018-11-02T05:07:49.048Z,1013.85
2018-11-02T05:08:49.144Z,1013.84
2018-11-02T05:09:49.177Z,1013.88
2018-11-02T05:10:48.969Z,1013.95
2018-11-02T05:11:49.059Z,1013.92
2018-11-02T05:12:48.911Z,1013.94
2018-11-02T05:13:48.979Z,1014.00
2018-11-02T05:14:48.869Z,1013.95
2018-11-02T05:15:48.980Z,1014.03
2018-11-02T05:16:48.807Z,1014.05
2018-11-02T05:17:48.897Z,1014.06
2018-11-02T05:18:48.758Z,1014.09
2018-11-02T05:19:48.811Z,1014.05
2018-11-02T05:20:48.821Z,1014.06
2018-11-02T05:21:48.696Z,1014.15
2018-11-02T05:22:48.732Z,1014.13
2018-11-02T05:23:48.619Z,1014.13
2018-11-02T05:24:48.746Z,1014.19
2018-11-02T05:25:48.756Z,1014.18
2018-11-02T05:26:48.549Z,1014.21
2018-11-02T05:27:48.663Z,1014.27
2018-11-02T05:28:48.501Z,1014.19
2018-11-02T05:29:48.571Z,1014.25
2018-11-02T05:30:48.451Z,1014.24
2018-11-02T05:31:48.413Z,1014.32
2018-11-02T05:32:48.489Z,1014.28
2018-11-02T05:33:48.359Z,1014.31
2018-11-02T05:34:48.499Z,1014.32
2018-11-02T05:35:48.313Z,1014.34
2018-11-02T05:36:48.278Z,1014.39
2018-11-02T05:37:48.420Z,1014.31
2018-11-02T05:38:48.237Z,1014.36
2018-11-02T05:39:48.330Z,1014.28
2018-11-02T05:40:48.179Z,1014.34
2018-11-02T05:41:48.150Z,1014.30
2018-11-02T05:42:48.129Z,1014.33
2018-11-02T05:43:48.264Z,1014.33
2018-11-02T05:44:48.069Z,1014.35
2018-11-02T05:45:48.172Z,1014.37
2018-11-02T05:46:48.022Z,1014.38
2018-11-02T05:47:47.990Z,1014.42
2018-11-02T05:48:48.123Z,1014.43
2018-11-02T05:49:47.942Z,1014.45
2018-11-02T05:50:48.105Z,1014.44
2018-11-02T05:51:47.890Z,1014.49
2018-11-02T05:52:47.859Z,1014.60
2018-11-02T05:53:47.829Z,1014.64
2018-11-02T05:54:47.932Z,1014.66
2018-11-02T05:55:47.783Z,1014.70
2018-11-02T05:56:47.839Z,1014.75
2018-11-02T05:57:47.847Z,1014.83
2018-11-02T05:58:47.698Z,1014.81
2018-11-02T05:59:47.759Z,1014.86
2018-11-02T06:00:47.649Z,1014.85
2018-11-02T06:01:47.700Z,1014.82
2018-11-02T06:02:47.610Z,1014.84
2018-11-02T06:03:47.572Z,1014.86
2018-11-02T06:04:47.596Z,1014.90
2018-11-02T06:05:47.520Z,1014.98
2018-11-02T06:06:47.607Z,1015.00
2018-11-02T06:07:47.542Z,1014.99
2018-11-02T06:08:47.439Z,1015.04
2018-11-02T06:09:47.420Z,1015.09
2018-11-02T06:10:47.427Z,1015.07
2018-11-02T06:11:47.365Z,1015.14
2018-11-02T06:12:47.446Z,1015.16
2018-11-02T06:13:47.341Z,1015.15
2018-11-02T06:14:47.282Z,1015.16
2018-11-02T06:15:47.358Z,1015.21
2018-11-02T06:16:47.265Z,1015.27
2018-11-02T06:17:47.271Z,1015.33
2018-11-02T06:18:47.181Z,1015.36
2018-11-02T06:19:47.149Z,1015.32
2018-11-02T06:20:47.195Z,1015.34
2018-11-02T06:21:47.134Z,1015.38
2018-11-02T06:22:47.107Z,1015.40
2018-11-02T06:23:47.039Z,1015.39
2018-11-02T06:24:47.033Z,1015.43
2018-11-02T06:25:47.008Z,1015.40
2018-11-02T06:26:47.029Z,1015.47
2018-11-02T06:27:46.946Z,1015.50
2018-11-02T06:28:46.943Z,1015.47
2018-11-02T06:29:46.887Z,1015.49
2018-11-02T06:30:47.032Z,1015.50
2018-11-02T06:31:46.840Z,1015.53
2018-11-02T06:32:47.018Z,1015.54
2018-11-02T06:33:46.850Z,1015.54
2018-11-02T06:34:46.778Z,1015.58
2018-11-02T06:35:46.737Z,1015.58
2018-11-02T06:36:46.788Z,1015.66
2018-11-02T06:37:46.683Z,1015.67
2018-11-02T06:38:46.847Z,1015.77
2018-11-02T06:39:46.623Z,1015.76
2018-11-02T06:40:46.600Z,1015.81
2018-11-02T06:41:46.637Z,1015.85
2018-11-02T06:42:46.547Z,1015.89
2018-11-02T06:43:46.544Z,1015.87
2018-11-02T06:44:46.497Z,1015.93
2018-11-02T06:45:46.459Z,1015.93
2018-11-02T06:46:46.437Z,1016.00
2018-11-02T06:47:46.488Z,1015.97
2018-11-02T06:48:46.378Z,1015.99
2018-11-02T06:49:46.479Z,1016.04
2018-11-02T06:50:46.368Z,1015.98
2018-11-02T06:51:46.324Z,1016.00
2018-11-02T06:52:46.396Z,1016.06
2018-11-02T06:53:46.249Z,1016.08
2018-11-02T06:54:46.300Z,1016.05
2018-11-02T06:55:46.200Z,1016.14
2018-11-02T06:56:46.163Z,1016.06
2018-11-02T06:57:46.139Z,1016.15
2018-11-02T06:58:46.228Z,1016.11
2018-11-02T06:59:46.329Z,1016.14
2018-11-02T07:00:46.163Z,1016.20
2018-11-02T07:01:46.049Z,1016.18
2018-11-02T07:02:46.058Z,1016.17
2018-11-02T07:03:46.001Z,1016.20
2018-11-02T07:04:46.087Z,1016.18
2018-11-02T07:05:45.929Z,1016.19
2018-11-02T07:06:45.975Z,1016.23
2018-11-02T07:07:45.959Z,1016.23
2018-11-02T07:08:45.889Z,1016.26
2018-11-02T07:09:45.824Z,1016.33
2018-11-02T07:10:45.903Z,1016.35
2018-11-02T07:11:45.770Z,1016.40
2018-11-02T07:12:45.741Z,1016.36
2018-11-02T07:13:45.721Z,1016.47
2018-11-02T07:14:45.723Z,1016.47
2018-11-02T07:15:45.669Z,1016.47
2018-11-02T07:16:45.748Z,1016.55
2018-11-02T07:17:45.602Z,1016.54
2018-11-02T07:18:45.649Z,1016.57
2018-11-02T07:19:45.565Z,1016.60
2018-11-02T07:20:45.593Z,1016.63
2018-11-02T07:21:45.497Z,1016.64
2018-11-02T07:22:45.578Z,1016.69
2018-11-02T07:23:45.466Z,1016.78
2018-11-02T07:24:45.499Z,1016.77
2018-11-02T07:25:45.401Z,1016.77
2018-11-02T07:26:45.399Z,1016.81
2018-11-02T07:27:45.353Z,1016.84
2018-11-02T07:28:45.319Z,1016.89
2018-11-02T07:29:45.290Z,1016.91
2018-11-02T07:30:45.320Z,1016.97
2018-11-02T07:31:45.239Z,1017.02
2018-11-02T07:32:45.251Z,1017.02
2018-11-02T07:33:45.239Z,1017.04
2018-11-02T07:34:45.160Z,1017.04
2018-11-02T07:35:45.149Z,1017.04
2018-11-02T07:36:45.101Z,1017.07
2018-11-02T07:37:45.169Z,1017.06
2018-11-02T07:38:45.055Z,1017.06
2018-11-02T07:39:45.029Z,1017.10
2018-11-02T07:40:45.091Z,1017.10
2018-11-02T07:41:44.970Z,1017.14
2018-11-02T07:42:45.001Z,1017.12
2018-11-02T07:43:44.920Z,1017.17
2018-11-02T07:44:44.888Z,1017.19
2018-11-02T07:45:44.920Z,1017.14
2018-11-02T07:46:44.845Z,1017.20
2018-11-02T07:47:44.906Z,1017.23
2018-11-02T07:48:44.791Z,1017.20
2018-11-02T07:49:44.817Z,1017.22
2018-11-02T07:50:44.765Z,1017.28
2018-11-02T07:51:44.760Z,1017.30
2018-11-02T07:52:44.680Z,1017.27
2018-11-02T07:53:44.668Z,1017.31
2018-11-02T07:54:44.629Z,1017.29
2018-11-02T07:55:44.600Z,1017.34
2018-11-02T07:56:44.613Z,1017.35
2018-11-02T07:57:44.553Z,1017.39
2018-11-02T07:58:44.615Z,1017.43
2018-11-02T07:59:44.489Z,1017.39
2018-11-02T08:00:44.459Z,1017.49
2018-11-02T08:01:44.484Z,1017.52
2018-11-02T08:02:44.531Z,1017.47
2018-11-02T08:03:44.394Z,1017.45
2018-11-02T08:04:44.440Z,1017.45
2018-11-02T08:05:44.330Z,1017.47
2018-11-02T08:06:44.360Z,1017.48
2018-11-02T08:07:44.281Z,1017.53
2018-11-02T08:08:44.359Z,1017.51
2018-11-02T08:09:44.219Z,1017.54
2018-11-02T08:10:44.280Z,1017.52
2018-11-02T08:11:44.308Z,1017.51
2018-11-02T08:12:44.193Z,1017.57
2018-11-02T08:13:44.120Z,1017.55
2018-11-02T08:14:44.199Z,1017.58
2018-11-02T08:15:44.059Z,1017.60
2018-11-02T08:16:44.041Z,1017.56
2018-11-02T08:17:44.095Z,1017.56
2018-11-02T08:18:44.025Z,1017.60
2018-11-02T08:19:43.961Z,1017.55
2018-11-02T08:20:44.100Z,1017.58
2018-11-02T08:21:51.259Z,1017.57
2018-11-02T08:23:36.848Z,1017.57
2018-11-02T08:24:36.847Z,1017.55
2018-11-02T08:26:29.699Z,1017.54
2018-11-02T08:27:29.681Z,1017.55
2018-11-02T08:29:22.548Z,1017.63
2018-11-02T08:30:22.450Z,1017.61
2018-11-02T08:32:15.546Z,1017.60
2018-11-02T08:33:15.298Z,1017.59
2018-11-02T08:35:08.363Z,1017.65
2018-11-02T08:36:08.259Z,1017.63
2018-11-02T08:38:01.152Z,1017.74
2018-11-02T08:39:01.120Z,1017.75
2018-11-02T08:40:55.089Z,1017.77
2018-11-02T08:41:54.992Z,1017.77
2018-11-02T08:43:48.052Z,1017.82
2018-11-02T08:44:47.940Z,1017.81
2018-11-02T08:46:41.146Z,1017.89
2018-11-02T08:47:40.902Z,1017.87
2018-11-02T08:49:33.963Z,1017.94
2018-11-02T08:50:33.859Z,1017.92
2018-11-02T08:52:27.066Z,1018.03
2018-11-02T08:53:26.809Z,1018.04
2018-11-02T08:54:26.779Z,1018.05
2018-11-02T08:55:26.911Z,1018.01
2018-11-02T08:56:26.733Z,1018.06
2018-11-02T08:57:26.828Z,1018.03
2018-11-02T08:58:26.915Z,1018.05
2018-11-02T08:59:26.816Z,1018.07
2018-11-02T09:00:26.635Z,1018.08
2018-11-02T09:01:26.749Z,1018.18
2018-11-02T09:02:26.581Z,1018.39
2018-11-02T09:03:26.657Z,1018.32
2018-11-02T09:04:26.538Z,1018.47
2018-11-02T09:05:26.512Z,1018.31
2018-11-02T09:06:26.580Z,1018.51
2018-11-02T09:07:26.458Z,1018.59
2018-11-02T09:08:26.594Z,1018.56
2018-11-02T09:09:26.408Z,1018.62
2018-11-02T09:10:26.395Z,1018.49
2018-11-02T09:11:26.510Z,1018.42
2018-11-02T09:12:26.351Z,1018.46
2018-11-02T09:13:26.419Z,1018.50
2018-11-02T09:14:26.300Z,1018.48
2018-11-02T09:15:26.283Z,1018.53
2018-11-02T09:16:26.267Z,1018.49
2018-11-02T09:17:26.348Z,1018.47
2018-11-02T09:18:26.252Z,1018.50
2018-11-02T09:19:26.408Z,1018.51
2018-11-02T09:20:26.175Z,1018.53
2018-11-02T09:21:26.158Z,1018.57
2018-11-02T09:22:26.318Z,1018.69
2018-11-02T09:23:26.118Z,1018.79
2018-11-02T09:24:26.188Z,1018.98
2018-11-02T09:25:26.064Z,1019.02
2018-11-02T09:26:26.043Z,1019.35
2018-11-02T09:27:26.130Z,1019.41
2018-11-02T09:28:25.998Z,1019.34
2018-11-02T09:29:26.037Z,1019.36
2018-11-02T09:30:25.959Z,1019.38
2018-11-02T09:31:25.938Z,1019.34
2018-11-02T09:32:25.925Z,1019.48
2018-11-02T09:33:25.947Z,1019.30
2018-11-02T09:34:25.895Z,1019.32
2018-11-02T09:35:25.961Z,1019.39
2018-11-02T09:36:25.851Z,1019.37
2018-11-02T09:37:25.828Z,1019.23
2018-11-02T09:38:25.878Z,1019.29
2018-11-02T09:39:25.799Z,1019.40
2018-11-02T09:40:26.011Z,1019.43
2018-11-02T09:41:25.761Z,1019.58
2018-11-02T09:42:25.781Z,1019.16
2018-11-02T09:43:25.815Z,1019.61
2018-11-02T09:44:25.718Z,1019.28
2018-11-02T09:45:25.737Z,1019.21
2018-11-02T09:46:25.697Z,1019.16
2018-11-02T09:47:25.672Z,1019.24
2018-11-02T09:48:25.658Z,1019.39
2018-11-02T09:49:25.751Z,1019.40
2018-11-02T09:50:25.629Z,1019.31
2018-11-02T09:51:25.687Z,1019.24
2018-11-02T09:52:25.599Z,1019.31
2018-11-02T09:53:25.677Z,1019.26
2018-11-02T09:54:25.562Z,1019.32
2018-11-02T09:55:25.589Z,1019.25
2018-11-02T09:56:25.528Z,1019.35
2018-11-02T09:57:25.663Z,1019.42
2018-11-02T09:58:25.499Z,1019.67
2018-11-02T09:59:25.526Z,1019.50
2018-11-02T10:00:25.476Z,1019.42
2018-11-02T10:01:25.529Z,1019.38
2018-11-02T10:02:25.440Z,1019.38
2018-11-02T10:03:25.424Z,1019.45
2018-11-02T10:04:25.407Z,1019.48
2018-11-02T10:05:25.461Z,1019.46
2018-11-02T10:06:25.376Z,1019.37
2018-11-02T10:07:25.369Z,1019.38
2018-11-02T10:08:25.367Z,1019.49
2018-11-02T10:09:25.380Z,1019.55
2018-11-02T10:10:25.364Z,1019.45
2018-11-02T10:11:25.402Z,1019.88
2018-11-02T10:12:25.269Z,1019.82
2018-11-02T10:13:25.309Z,1020.00
2018-11-02T10:14:25.318Z,1020.12
2018-11-02T10:15:25.219Z,1020.02
2018-11-02T10:16:25.229Z,1020.04
2018-11-02T10:17:25.188Z,1020.08
2018-11-02T10:18:25.238Z,1020.12
2018-11-02T10:19:25.248Z,1020.09
2018-11-02T10:20:25.151Z,1020.13
2018-11-02T10:21:25.167Z,1020.08
2018-11-02T10:22:25.120Z,1020.14
2018-11-02T10:23:25.167Z,1020.14
2018-11-02T10:24:25.089Z,1020.22
2018-11-02T10:25:25.189Z,1020.18
2018-11-02T10:26:25.063Z,1020.23
2018-11-02T10:27:25.099Z,1020.25
2018-11-02T10:28:25.048Z,1020.24
2018-11-02T10:29:25.118Z,1020.22
2018-11-02T10:30:25.015Z,1020.30
2018-11-02T10:31:25.040Z,1020.32
2018-11-02T10:32:24.988Z,1020.31
2018-11-02T10:33:25.037Z,1020.34
2018-11-02T10:34:24.972Z,1020.32
2018-11-02T10:35:24.999Z,1019.78
2018-11-02T10:36:24.948Z,1020.32
2018-11-02T10:37:24.968Z,1020.33
2018-11-02T10:38:24.921Z,1020.35
2018-11-02T10:39:25.021Z,1020.40
2018-11-02T10:40:24.908Z,1020.41
2018-11-02T10:41:24.988Z,1020.18
2018-11-02T10:42:24.881Z,1019.71
2018-11-02T10:43:24.922Z,1019.97
2018-11-02T10:44:24.935Z,1020.45
2018-11-02T10:45:24.933Z,1020.17
2018-11-02T10:46:24.848Z,1020.48
2018-11-02T10:47:24.928Z,1020.48
2018-11-02T10:48:24.808Z,1020.52
2018-11-02T10:49:24.926Z,1020.55
2018-11-02T10:50:24.789Z,1020.45
2018-11-02T10:51:24.778Z,1019.58
2018-11-02T10:52:24.777Z,1019.63
2018-11-02T10:53:24.886Z,1019.62
2018-11-02T10:54:24.783Z,1019.57
2018-11-02T10:55:24.797Z,1020.51
2018-11-02T10:56:24.733Z,1019.87
2018-11-02T10:57:24.821Z,1020.70
2018-11-02T10:58:24.697Z,1020.78
2018-11-02T10:59:24.709Z,1020.17
2018-11-02T11:00:24.683Z,1020.05
2018-11-02T11:01:24.850Z,1019.83
2018-11-02T11:02:24.652Z,1019.65
2018-11-02T11:03:24.740Z,1019.61
2018-11-02T11:04:24.628Z,1019.65
2018-11-02T11:05:24.739Z,1019.63
2018-11-02T11:06:24.608Z,1019.62
2018-11-02T11:07:24.592Z,1019.58
2018-11-02T11:08:24.579Z,1019.61
2018-11-02T11:09:24.585Z,1019.62
2018-11-02T11:10:24.553Z,1019.60
2018-11-02T11:11:24.647Z,1019.57
2018-11-02T11:12:24.685Z,1019.66
2018-11-02T11:13:24.915Z,1019.65
2018-11-02T11:14:24.485Z,1019.69
2018-11-02T11:15:24.521Z,1019.70
2018-11-02T11:16:24.453Z,1019.69
2018-11-02T11:17:24.533Z,1019.74
2018-11-02T11:18:24.418Z,1019.77
2018-11-02T11:19:24.440Z,1019.69
2018-11-02T11:20:24.380Z,1019.71
2018-11-02T11:21:24.566Z,1019.69
2018-11-02T11:22:24.350Z,1019.65
2018-11-02T11:23:24.332Z,1019.70
2018-11-02T11:24:24.310Z,1019.71
2018-11-02T11:25:24.380Z,1019.72
2018-11-02T11:26:24.270Z,1019.72
2018-11-02T11:27:24.289Z,1019.73
2018-11-02T11:28:24.229Z,1021.05
2018-11-02T11:29:24.300Z,1021.16
2018-11-02T11:30:24.211Z,1021.19
2018-11-02T11:31:24.170Z,1021.31
2018-11-02T11:32:24.242Z,1021.37
2018-11-02T11:33:24.139Z,1021.36
2018-11-02T11:34:24.110Z,1021.38
2018-11-02T11:35:24.100Z,1021.46
2018-11-02T11:36:24.159Z,1021.54
2018-11-02T11:37:24.093Z,1021.46
2018-11-02T11:38:24.062Z,1021.39
2018-11-02T11:39:24.084Z,1021.40
2018-11-02T11:40:24.079Z,1021.39
2018-11-02T11:41:23.999Z,1021.38
2018-11-02T11:42:23.998Z,1021.39
2018-11-02T11:43:23.963Z,1021.41
2018-11-02T11:44:24.019Z,1021.32
2018-11-02T11:45:23.934Z,1021.28
2018-11-02T11:46:24.031Z,1021.32
2018-11-02T11:47:23.899Z,1021.30
2018-11-02T11:48:23.951Z,1021.17
2018-11-02T11:49:23.870Z,1021.19
2018-11-02T11:50:23.860Z,1021.24
2018-11-02T11:51:23.861Z,1021.28
2018-11-02T11:52:24.893Z,1021.32
2018-11-02T11:53:23.828Z,1021.27
2018-11-02T11:54:23.897Z,1021.37
2018-11-02T11:55:23.803Z,1021.45
2018-11-02T11:56:23.888Z,1021.39
2018-11-02T11:57:23.781Z,1021.47
2018-11-02T11:58:23.810Z,1021.37
2018-11-02T11:59:23.755Z,1021.67
2018-11-02T12:00:23.742Z,1021.87
2018-11-02T12:01:23.728Z,1021.85
2018-11-02T12:02:23.885Z,1020.18
2018-11-02T12:03:23.699Z,1021.33
2018-11-02T12:04:23.795Z,1021.43
2018-11-02T12:05:23.689Z,1020.18
2018-11-02T12:06:23.739Z,1020.62
2018-11-02T12:07:23.661Z,1020.23
2018-11-02T12:08:23.670Z,1020.12
2018-11-02T12:09:23.629Z,1021.53
2018-11-02T12:10:23.760Z,1021.40
2018-11-02T12:11:23.600Z,1020.99
2018-11-02T12:12:23.689Z,1020.20
2018-11-02T12:13:23.575Z,1021.41
2018-11-02T12:14:23.611Z,1021.46
2018-11-02T12:15:23.551Z,1021.30
2018-11-02T12:16:23.540Z,1021.31